createdAt,value
2023-04-18T00:00:40.213Z,68.61
2023-04-18T00:05:44.020Z,68.77
2023-04-18T00:10:46.664Z,68.93
2023-04-18T00:15:48.515Z,69.23
2023-04-18T00:20:50.503Z,69.29
2023-04-18T00:25:52.294Z,69.51
2023-04-18T00:30:54.051Z,69.63
2023-04-18T00:35:55.758Z,70.10
2023-04-18T00:40:57.721Z,70.39
2023-04-18T00:46:01.631Z,70.74
2023-04-18T00:51:03.877Z,71.08
2023-04-18T00:56:06.929Z,70.82
2023-04-18T01:01:09.555Z,70.90
2023-04-18T01:06:11.907Z,71.36
2023-04-18T01:11:13.681Z,71.13
2023-04-18T01:16:15.782Z,71.38
2023-04-18T01:21:18.312Z,71.62
2023-04-18T01:26:20.510Z,71.70
2023-04-18T01:31:22.343Z,71.44
2023-04-18T01:36:24.156Z,71.79
2023-04-18T01:41:25.919Z,71.83
2023-04-18T01:46:28.868Z,71.61
2023-04-18T01:51:31.424Z,71.40
2023-04-18T01:56:33.235Z,71.76
2023-04-18T02:01:36.532Z,72.13
2023-04-18T02:06:38.272Z,71.64
2023-04-18T02:11:40.315Z,72.01
2023-04-18T02:16:42.110Z,72.18
2023-04-18T02:21:45.041Z,72.00
2023-04-18T02:26:46.947Z,72.06
2023-04-18T02:31:48.891Z,72.07
2023-04-18T02:36:50.706Z,72.56
2023-04-18T02:41:52.421Z,72.84
2023-04-18T02:46:54.148Z,72.76
2023-04-18T02:51:58.055Z,73.80
2023-04-18T02:56:59.843Z,73.32
2023-04-18T03:02:21.893Z,73.12
2023-04-18T03:07:29.055Z,73.22
2023-04-18T03:12:31.079Z,73.48
2023-04-18T03:17:33.231Z,73.36
2023-04-18T03:22:35.293Z,73.12
2023-04-18T03:27:37.354Z,73.36
2023-04-18T03:32:39.477Z,73.75
2023-04-18T03:37:41.341Z,73.27
2023-04-18T03:42:44.650Z,73.05
2023-04-18T03:47:46.713Z,72.90
2023-04-18T03:52:49.089Z,72.97
2023-04-18T03:57:52.605Z,72.98
2023-04-18T04:03:01.890Z,73.86
2023-04-18T04:08:03.961Z,73.59
2023-04-18T04:13:05.749Z,72.80
2023-04-18T04:18:10.622Z,73.54
2023-04-18T04:23:16.421Z,73.26
2023-04-18T04:28:23.952Z,73.31
2023-04-18T04:33:34.545Z,73.23
2023-04-18T04:38:40.716Z,73.47
2023-04-18T04:43:43.654Z,73.08
2023-04-18T04:48:53.178Z,73.49
2023-04-18T04:53:55.018Z,72.95
2023-04-18T04:58:57.712Z,73.15
2023-04-18T05:04:06.352Z,73.19
2023-04-18T05:09:08.365Z,73.22
2023-04-18T05:14:10.258Z,73.48
2023-04-18T05:19:12.046Z,73.76
2023-04-18T05:24:14.237Z,73.84
2023-04-18T05:29:16.281Z,73.81
2023-04-18T05:34:18.064Z,73.30
2023-04-18T05:39:19.764Z,73.70
2023-04-18T05:44:21.792Z,74.12
2023-04-18T05:49:23.791Z,73.47
2023-04-18T05:54:25.759Z,74.13
2023-04-18T05:59:27.436Z,74.42
2023-04-18T06:04:29.469Z,74.60
2023-04-18T06:09:31.403Z,75.12
2023-04-18T06:14:33.165Z,74.92
2023-04-18T06:19:34.883Z,74.57
2023-04-18T06:24:37.440Z,74.09
2023-04-18T06:29:39.301Z,74.47
2023-04-18T06:34:41.087Z,74.23
2023-04-18T06:39:43.195Z,74.72
2023-04-18T06:44:44.967Z,74.46
2023-04-18T06:49:46.864Z,74.69
2023-04-18T06:54:48.680Z,74.14
2023-04-18T06:59:50.510Z,74.62
2023-04-18T07:04:52.227Z,74.35
2023-04-18T07:09:54.057Z,74.49
2023-04-18T07:14:55.773Z,73.58
2023-04-18T07:19:58.720Z,73.63
2023-04-18T07:25:00.455Z,73.42
2023-04-18T07:30:03.358Z,72.29
2023-04-18T07:35:05.490Z,71.64
2023-04-18T07:40:08.461Z,71.53
2023-04-18T07:45:10.595Z,70.85
2023-04-18T07:50:12.404Z,71.12
2023-04-18T07:55:15.025Z,71.12
2023-04-18T08:00:20.056Z,70.56
2023-04-18T08:05:21.876Z,70.84
2023-04-18T08:10:23.991Z,70.02
2023-04-18T08:15:27.578Z,69.99
2023-04-18T08:20:29.400Z,69.43
2023-04-18T08:25:31.770Z,68.54
2023-04-18T08:30:33.682Z,68.82
2023-04-18T08:35:35.808Z,69.73
2023-04-18T08:40:39.133Z,68.82
2023-04-18T08:45:41.928Z,68.77
2023-04-18T08:50:44.950Z,68.92
2023-04-18T08:55:50.690Z,68.71
2023-04-18T09:00:53.761Z,67.51
2023-04-18T09:06:20.281Z,68.21
2023-04-18T09:11:29.009Z,67.80
2023-04-18T09:16:45.243Z,67.35
2023-04-18T09:21:56.920Z,67.13
2023-04-18T09:26:59.990Z,66.72
2023-04-18T09:32:02.100Z,65.58
2023-04-18T09:37:09.299Z,64.26
2023-04-18T09:42:11.423Z,63.13
2023-04-18T09:47:13.219Z,58.80
2023-04-18T09:52:16.048Z,58.17
2023-04-18T09:57:18.605Z,55.86
2023-04-18T10:02:22.809Z,57.22
2023-04-18T10:07:26.266Z,58.15
2023-04-18T10:12:28.145Z,58.35
2023-04-18T10:17:36.760Z,59.61
2023-04-18T10:22:38.623Z,58.91
2023-04-18T10:27:56.523Z,59.48
2023-04-18T10:32:58.370Z,58.90
2023-04-18T10:38:02.830Z,58.69
2023-04-18T10:43:06.592Z,59.13
2023-04-18T10:48:39.344Z,58.42
2023-04-18T10:53:48.496Z,56.86
2023-04-18T10:58:52.303Z,58.00
2023-04-18T11:03:58.103Z,57.43
2023-04-18T11:09:14.021Z,57.02
2023-04-18T11:14:16.145Z,56.83
2023-04-18T11:19:20.433Z,58.00
2023-04-18T11:24:24.073Z,59.23
2023-04-18T11:29:26.100Z,59.25
2023-04-18T11:34:31.590Z,61.18
2023-04-18T11:39:42.560Z,62.67
2023-04-18T11:44:49.226Z,64.75
2023-04-18T11:50:06.727Z,66.58
2023-04-18T11:55:17.541Z,67.80
2023-04-18T12:00:37.535Z,69.85
2023-04-18T12:05:40.000Z,67.82
2023-04-18T12:10:50.668Z,67.51
2023-04-18T12:15:54.042Z,65.91
2023-04-18T12:20:56.016Z,65.66
2023-04-18T12:26:05.834Z,64.59
2023-04-18T12:31:07.924Z,64.39
2023-04-18T12:36:10.510Z,63.57
2023-04-18T12:41:12.664Z,63.22
2023-04-18T12:46:14.500Z,64.32
2023-04-18T12:51:16.298Z,64.03
2023-04-18T12:56:18.173Z,64.91
2023-04-18T13:01:20.163Z,64.04
2023-04-18T13:06:21.946Z,62.73
2023-04-18T13:11:28.747Z,63.86
2023-04-18T13:16:31.318Z,63.35
2023-04-18T13:21:33.204Z,63.40
2023-04-18T13:26:36.144Z,63.94
2023-04-18T13:31:38.150Z,64.33
2023-04-18T13:36:42.992Z,63.80
2023-04-18T13:41:45.505Z,63.88
2023-04-18T13:46:47.284Z,65.27
2023-04-18T13:51:53.644Z,64.95
2023-04-18T13:57:02.269Z,64.19
2023-04-18T14:02:04.399Z,63.75
2023-04-18T14:07:06.415Z,64.93
2023-04-18T14:12:08.305Z,64.95
2023-04-18T14:17:10.340Z,65.86
2023-04-18T14:22:12.146Z,66.43
2023-04-18T14:27:13.987Z,67.18
2023-04-18T14:32:15.745Z,67.45
2023-04-18T14:37:17.818Z,68.07
2023-04-18T14:42:19.600Z,68.11
2023-04-18T14:47:21.850Z,69.39
2023-04-18T14:52:23.962Z,70.30
2023-04-18T14:57:26.631Z,71.01
2023-04-18T15:02:28.696Z,71.30
2023-04-18T15:07:30.734Z,70.80
2023-04-18T15:12:32.928Z,70.67
2023-04-18T15:17:34.943Z,70.00
2023-04-18T15:22:37.224Z,70.86
2023-04-18T15:27:39.113Z,70.58
2023-04-18T15:32:42.180Z,69.94
2023-04-18T15:37:44.039Z,69.65
2023-04-18T15:42:46.473Z,69.60
2023-04-18T15:47:49.035Z,69.89
2023-04-18T15:52:50.846Z,70.72
2023-04-18T15:57:52.545Z,71.28
2023-04-18T16:02:55.086Z,71.54
2023-04-18T16:07:58.184Z,71.18
2023-04-18T16:13:03.254Z,70.41
2023-04-18T16:18:05.190Z,70.41
2023-04-18T16:23:07.232Z,70.68
2023-04-18T16:28:09.083Z,71.65
2023-04-18T16:33:11.736Z,71.66
2023-04-18T16:38:13.512Z,71.36
2023-04-18T16:43:15.212Z,72.16
2023-04-18T16:48:17.137Z,72.50
2023-04-18T16:53:18.918Z,72.67
2023-04-18T16:58:21.683Z,73.17
2023-04-18T17:03:23.640Z,74.03
2023-04-18T17:08:27.115Z,74.23
2023-04-18T17:13:31.562Z,74.62
2023-04-18T17:18:33.534Z,75.72
2023-04-18T17:23:35.357Z,75.78
2023-04-18T17:28:37.369Z,75.64
2023-04-18T17:33:39.152Z,76.19
2023-04-18T17:38:41.290Z,75.83
2023-04-18T17:43:44.265Z,76.42
2023-04-18T17:48:46.115Z,76.53
2023-04-18T17:53:47.939Z,76.80
2023-04-18T17:58:49.666Z,76.56
2023-04-18T18:03:53.707Z,76.40
2023-04-18T18:08:56.012Z,76.48
2023-04-18T18:13:57.799Z,76.44
2023-04-18T18:18:59.667Z,76.22
2023-04-18T18:24:01.506Z,76.77
2023-04-18T18:29:10.083Z,76.93
2023-04-18T18:34:12.359Z,76.87
2023-04-18T18:39:22.170Z,78.00
2023-04-18T18:44:27.417Z,77.70
2023-04-18T18:49:32.206Z,78.02
2023-04-18T18:54:34.022Z,78.47
2023-04-18T18:59:36.060Z,78.61
2023-04-18T19:04:37.973Z,78.45
2023-04-18T19:09:39.900Z,78.66
2023-04-18T19:14:42.453Z,78.80
2023-04-18T19:19:44.483Z,77.70
2023-04-18T19:24:46.483Z,77.92
2023-04-18T19:29:48.532Z,78.27
2023-04-18T19:34:51.414Z,78.49
2023-04-18T19:39:53.391Z,77.74
2023-04-18T19:44:56.466Z,78.25
2023-04-18T19:50:02.064Z,77.55
2023-04-18T19:55:04.093Z,77.53
2023-04-18T20:00:12.643Z,77.38
2023-04-18T20:05:16.302Z,78.20
2023-04-18T20:10:23.374Z,77.84
2023-04-18T20:15:25.161Z,77.93
2023-04-18T20:20:28.302Z,78.75
2023-04-18T20:25:30.121Z,79.85
2023-04-18T20:30:32.165Z,80.27
2023-04-18T20:35:34.950Z,80.30
2023-04-18T20:40:39.799Z,80.49
2023-04-18T20:45:43.024Z,79.86
2023-04-18T20:50:51.197Z,79.56
2023-04-18T20:55:53.207Z,79.47
2023-04-18T21:00:54.984Z,79.52
2023-04-18T21:05:56.779Z,79.65
2023-04-18T21:10:58.542Z,79.63
2023-04-18T21:16:02.502Z,79.82
2023-04-18T21:21:04.682Z,79.33
2023-04-18T21:26:06.827Z,80.54
2023-04-18T21:31:08.722Z,80.31
2023-04-18T21:36:12.834Z,80.08
2023-04-18T21:41:22.895Z,80.19
2023-04-18T21:46:25.579Z,80.58
2023-04-18T21:51:27.460Z,80.13
2023-04-18T21:56:29.314Z,80.36
2023-04-18T22:01:31.371Z,80.98
2023-04-18T22:06:33.399Z,81.43
2023-04-18T22:11:35.178Z,81.00
2023-04-18T22:16:38.167Z,81.17
2023-04-18T22:21:39.942Z,81.48
2023-04-18T22:26:41.707Z,81.72
2023-04-18T22:31:43.457Z,81.35
2023-04-18T22:36:45.643Z,81.75
2023-04-18T22:41:47.375Z,81.76
2023-04-18T22:46:49.574Z,82.17
2023-04-18T22:51:54.468Z,82.71
2023-04-18T22:56:56.796Z,82.73
2023-04-18T23:01:58.620Z,82.86
2023-04-18T23:07:00.433Z,83.34
2023-04-18T23:12:05.225Z,83.52
2023-04-18T23:17:07.015Z,84.05
2023-04-18T23:22:08.762Z,83.26
2023-04-18T23:27:10.598Z,83.80
2023-04-18T23:32:12.306Z,83.38
2023-04-18T23:37:14.058Z,83.59
2023-04-18T23:42:15.837Z,83.56
2023-04-18T23:47:17.679Z,83.37
2023-04-18T23:52:19.476Z,84.18
2023-04-18T23:57:21.292Z,83.50
